createdAt,value
2022-08-05T00:01:27.925Z,99.90
2022-08-05T00:06:32.151Z,99.90
2022-08-05T00:11:35.171Z,99.90
2022-08-05T00:16:53.354Z,99.90
2022-08-05T00:21:51.407Z,99.90
2022-08-05T00:26:51.830Z,99.90
2022-08-05T00:32:10.150Z,99.90
2022-08-05T00:37:10.806Z,99.90
2022-08-05T00:42:09.874Z,99.90
2022-08-05T00:47:08.291Z,99.90
2022-08-05T00:52:09.443Z,99.90
2022-08-05T00:57:09.289Z,99.90
2022-08-05T01:02:06.525Z,99.90
2022-08-05T01:07:06.606Z,99.90
2022-08-05T01:12:18.617Z,99.90
2022-08-05T01:17:21.703Z,99.90
2022-08-05T01:22:28.116Z,99.90
2022-08-05T01:27:25.658Z,99.90
2022-08-05T01:32:27.728Z,99.90
2022-08-05T01:37:55.428Z,99.90
2022-08-05T01:42:59.210Z,99.90
2022-08-05T01:48:00.441Z,99.90
2022-08-05T01:53:02.271Z,99.90
2022-08-05T01:58:13.860Z,99.90
2022-08-05T02:03:45.820Z,99.90
2022-08-05T02:08:54.884Z,99.90
2022-08-05T02:14:27.852Z,99.90
2022-08-05T02:19:40.590Z,99.90
2022-08-05T02:24:53.480Z,99.90
2022-08-05T02:29:58.937Z,99.90
2022-08-05T02:35:13.939Z,99.90
2022-08-05T02:40:12.231Z,99.90
2022-08-05T02:45:11.031Z,99.90
2022-08-05T02:50:10.210Z,99.90
2022-08-05T02:55:10.896Z,99.90
2022-08-05T03:00:12.080Z,99.90
2022-08-05T03:05:10.721Z,99.90
2022-08-05T03:10:10.138Z,99.90
2022-08-05T03:15:10.084Z,99.90
2022-08-05T03:20:10.548Z,99.90
2022-08-05T03:25:32.377Z,99.90
2022-08-05T03:30:34.060Z,99.90
2022-08-05T03:35:33.817Z,99.90
2022-08-05T03:40:48.475Z,99.90
2022-08-05T03:45:57.951Z,99.90
2022-08-05T03:52:37.937Z,99.90
2022-08-05T03:56:38.579Z,99.90
2022-08-05T04:01:43.072Z,99.90
2022-08-05T04:06:47.849Z,99.90
2022-08-05T04:11:52.610Z,99.90
2022-08-05T04:16:50.595Z,99.90
2022-08-05T04:22:10.163Z,99.90
2022-08-05T04:27:08.000Z,99.90
2022-08-05T04:32:06.237Z,99.90
2022-08-05T04:37:04.913Z,99.90
2022-08-05T04:42:02.284Z,99.90
2022-08-05T04:47:09.345Z,99.90
2022-08-05T04:52:17.647Z,99.90
2022-08-05T04:57:16.116Z,99.90
2022-08-05T05:02:36.871Z,99.90
2022-08-05T05:07:35.351Z,99.90
2022-08-05T05:12:33.851Z,99.90
2022-08-05T05:17:57.037Z,99.90
2022-08-05T05:22:54.890Z,99.90
2022-08-05T05:27:56.089Z,99.90
2022-08-05T05:32:53.699Z,99.90
2022-08-05T05:37:59.529Z,99.90
2022-08-05T05:42:58.933Z,99.90
2022-08-05T05:48:05.506Z,99.90
2022-08-05T05:53:20.721Z,99.90
2022-08-05T05:58:19.154Z,99.90
2022-08-05T06:03:53.629Z,99.90
2022-08-05T06:08:47.830Z,99.90
2022-08-05T06:13:53.658Z,99.90
2022-08-05T06:18:53.670Z,99.90
2022-08-05T06:23:51.084Z,99.90
2022-08-05T06:28:48.376Z,99.90
2022-08-05T06:34:07.736Z,99.90
2022-08-05T06:39:02.949Z,99.90
2022-08-05T06:44:00.875Z,99.90
2022-08-05T06:49:01.026Z,99.90
2022-08-05T06:54:02.168Z,99.90
2022-08-05T06:58:59.894Z,99.10
2022-08-05T07:03:57.726Z,99.50
2022-08-05T07:08:56.641Z,99.90
2022-08-05T07:14:15.466Z,99.90
2022-08-05T07:20:05.811Z,99.90
2022-08-05T07:24:43.876Z,99.90
2022-08-05T07:30:27.678Z,99.00
2022-08-05T07:36:01.557Z,97.90
2022-08-05T07:40:33.367Z,96.80
2022-08-05T07:45:57.767Z,96.90
2022-08-05T07:50:50.799Z,97.50
2022-08-05T07:56:05.575Z,97.10
2022-08-05T08:01:12.257Z,96.50
2022-08-05T08:06:10.186Z,96.70
2022-08-05T08:11:08.985Z,95.70
2022-08-05T08:16:34.974Z,96.00
2022-08-05T08:21:24.033Z,95.10
2022-08-05T08:26:26.782Z,95.20
2022-08-05T08:31:27.127Z,96.10
2022-08-05T08:36:37.510Z,95.80
2022-08-05T08:41:52.009Z,96.10
2022-08-05T08:46:57.369Z,95.60
2022-08-05T08:52:05.985Z,95.30
2022-08-05T08:57:13.396Z,94.00
2022-08-05T09:02:11.783Z,94.30
2022-08-05T09:07:19.353Z,94.50
2022-08-05T09:12:20.435Z,94.50
2022-08-05T09:17:41.243Z,94.20
2022-08-05T09:23:19.721Z,94.00
2022-08-05T09:28:31.922Z,94.50
2022-08-05T09:33:35.102Z,95.40
2022-08-05T09:38:33.077Z,94.80
2022-08-05T09:43:41.366Z,94.70
2022-08-05T09:48:40.455Z,95.00
2022-08-05T09:53:54.895Z,95.30
2022-08-05T09:59:06.794Z,95.90
2022-08-05T10:04:16.199Z,96.30
2022-08-05T10:09:27.295Z,95.50
2022-08-05T10:14:35.677Z,96.10
2022-08-05T10:20:04.305Z,96.60
2022-08-05T10:24:51.547Z,95.00
2022-08-05T10:30:06.433Z,95.50
2022-08-05T10:35:07.338Z,95.70
2022-08-05T10:40:18.166Z,95.60
2022-08-05T10:45:23.222Z,96.10
2022-08-05T10:50:36.325Z,96.80
2022-08-05T10:56:03.200Z,97.50
2022-08-05T11:01:02.707Z,97.00
2022-08-05T11:06:06.330Z,96.70
2022-08-05T11:11:44.282Z,98.70
2022-08-05T11:16:56.659Z,98.50
2022-08-05T11:22:17.093Z,97.80
2022-08-05T11:27:51.440Z,97.70
2022-08-05T11:32:48.725Z,99.20
2022-08-05T11:38:29.985Z,99.70
2022-08-05T11:43:21.752Z,97.50
2022-08-05T11:48:42.185Z,98.00
2022-08-05T11:53:42.074Z,98.70
2022-08-05T11:58:41.890Z,98.40
2022-08-05T12:03:55.595Z,99.40
2022-08-05T12:08:56.553Z,98.60
2022-08-05T12:14:04.698Z,98.70
2022-08-05T12:19:02.693Z,99.90
2022-08-05T12:24:12.525Z,99.90
2022-08-05T12:29:22.627Z,99.90
2022-08-05T12:34:32.332Z,99.20
2022-08-05T12:39:37.246Z,99.90
2022-08-05T12:44:37.101Z,99.90
2022-08-05T12:50:04.010Z,99.90
2022-08-05T12:54:59.603Z,99.90
2022-08-05T13:01:58.670Z,99.90
2022-08-05T13:05:15.503Z,99.90
2022-08-05T13:10:14.727Z,99.90
2022-08-05T13:15:24.490Z,99.90
2022-08-05T13:20:40.492Z,99.90
2022-08-05T13:25:51.687Z,99.90
2022-08-05T13:30:55.479Z,99.80
2022-08-05T13:35:55.089Z,99.90
2022-08-05T13:41:00.441Z,99.70
2022-08-05T13:45:58.104Z,99.90
2022-08-05T13:51:04.825Z,99.90
2022-08-05T13:56:03.279Z,99.90
2022-08-05T14:01:00.763Z,98.60
2022-08-05T14:06:25.382Z,95.50
2022-08-05T14:11:20.503Z,94.60
2022-08-05T14:16:19.298Z,94.90
2022-08-05T14:22:07.827Z,96.00
2022-08-05T14:26:36.726Z,97.30
2022-08-05T14:31:54.419Z,95.00
2022-08-05T14:36:53.558Z,97.00
2022-08-05T14:42:15.840Z,99.20
2022-08-05T14:47:08.943Z,99.90
2022-08-05T14:52:06.354Z,99.90
2022-08-05T14:57:13.588Z,99.90
2022-08-05T15:02:15.050Z,98.50
2022-08-05T15:08:12.107Z,98.80
2022-08-05T15:12:41.069Z,98.20
2022-08-05T15:17:53.224Z,99.40
2022-08-05T15:22:53.970Z,99.90
2022-08-05T15:27:54.789Z,99.90
2022-08-05T15:33:05.237Z,99.90
2022-08-05T15:38:34.387Z,99.90
2022-08-05T15:43:21.071Z,99.90
2022-08-05T15:48:21.188Z,99.90
2022-08-05T15:53:18.681Z,99.90
2022-08-05T15:58:18.620Z,99.90
2022-08-05T16:03:16.501Z,99.90
2022-08-05T16:08:16.087Z,99.90
2022-08-05T16:13:13.690Z,99.90
2022-08-05T16:18:21.171Z,99.90
2022-08-05T16:23:28.050Z,99.90
2022-08-05T16:28:30.489Z,99.90
2022-08-05T16:33:28.990Z,99.90
2022-08-05T16:38:38.795Z,99.90
2022-08-05T16:43:37.960Z,99.90
2022-08-05T16:48:36.290Z,99.90
2022-08-05T16:54:03.884Z,99.90
2022-08-05T16:58:51.588Z,99.90
2022-08-05T17:03:49.064Z,99.90
2022-08-05T17:08:53.421Z,99.90
2022-08-05T17:13:51.560Z,99.90
2022-08-05T17:19:00.375Z,99.90
2022-08-05T17:24:03.425Z,99.90
2022-08-05T17:29:09.838Z,99.90
2022-08-05T17:34:07.795Z,99.90
2022-08-05T17:39:06.354Z,99.90
2022-08-05T17:44:26.537Z,99.90
2022-08-05T17:49:59.650Z,99.90
2022-08-05T17:54:47.561Z,99.90
2022-08-05T17:59:46.421Z,99.90
2022-08-05T18:05:06.292Z,99.90
2022-08-05T18:10:10.001Z,99.90
2022-08-05T18:15:09.000Z,99.90
2022-08-05T18:20:06.998Z,99.90
2022-08-05T18:25:11.616Z,99.90
2022-08-05T18:30:15.266Z,99.90
2022-08-05T18:35:12.727Z,99.90
2022-08-05T18:40:31.777Z,99.90
2022-08-05T18:45:41.465Z,99.90
2022-08-05T18:52:02.989Z,99.90
2022-08-05T18:56:15.450Z,99.90
2022-08-05T19:01:18.147Z,99.90
2022-08-05T19:06:21.672Z,99.90
2022-08-05T19:11:27.858Z,99.90
2022-08-05T19:16:28.406Z,99.90
2022-08-05T19:21:34.353Z,99.90
2022-08-05T19:26:32.642Z,99.90
2022-08-05T19:31:30.906Z,99.90
2022-08-05T19:36:42.552Z,99.90
2022-08-05T19:42:07.634Z,99.90
2022-08-05T19:46:57.567Z,99.90
2022-08-05T19:52:08.740Z,99.90
2022-08-05T19:57:12.428Z,99.90
2022-08-05T20:02:17.658Z,99.90
2022-08-05T20:07:15.158Z,99.90
2022-08-05T20:12:12.492Z,99.90
2022-08-05T20:17:10.267Z,99.90
2022-08-05T20:22:13.539Z,99.90
2022-08-05T20:27:11.377Z,99.90
2022-08-05T20:32:10.302Z,99.90
2022-08-05T20:37:09.599Z,99.90
2022-08-05T20:42:15.626Z,99.90
2022-08-05T20:47:19.228Z,99.90
2022-08-05T20:52:29.121Z,99.90
2022-08-05T20:57:43.604Z,99.90
2022-08-05T21:02:51.884Z,99.90
2022-08-05T21:07:52.286Z,99.90
2022-08-05T21:13:08.977Z,99.90
2022-08-05T21:18:07.793Z,99.90
2022-08-05T21:23:07.726Z,99.90
2022-08-05T21:28:05.506Z,99.90
2022-08-05T21:33:03.461Z,99.90
2022-08-05T21:38:05.780Z,99.90
2022-08-05T21:43:05.668Z,99.90
2022-08-05T21:48:06.569Z,99.90
2022-08-05T21:53:16.749Z,99.90
2022-08-05T21:58:15.608Z,99.90
2022-08-05T22:03:16.679Z,99.90
2022-08-05T22:08:22.073Z,99.90
2022-08-05T22:14:05.633Z,99.90
2022-08-05T22:18:39.206Z,99.90
2022-08-05T22:24:01.835Z,99.90
2022-08-05T22:29:01.062Z,99.90
2022-08-05T22:34:01.456Z,99.90
2022-08-05T22:39:09.082Z,99.90
2022-08-05T22:44:08.554Z,99.90
2022-08-05T22:49:06.069Z,99.90
2022-08-05T22:54:04.680Z,99.90
2022-08-05T22:59:43.896Z,99.90
2022-08-05T23:04:22.493Z,99.90
2022-08-05T23:09:27.598Z,99.90
2022-08-05T23:14:37.207Z,99.90
2022-08-05T23:19:38.543Z,99.90
2022-08-05T23:24:48.376Z,99.90
2022-08-05T23:29:50.586Z,99.90
2022-08-05T23:34:48.158Z,99.90
2022-08-05T23:39:54.170Z,99.90
2022-08-05T23:44:54.256Z,99.90
2022-08-05T23:49:55.484Z,99.90
2022-08-05T23:54:55.592Z,99.90
